createdAt,value
2023-02-24T00:00:17.699Z,67
2023-02-24T00:01:33.995Z,65.1
2023-02-24T00:02:50.291Z,67.6
2023-02-24T00:04:06.570Z,67.7
2023-02-24T00:05:22.878Z,70.5
2023-02-24T00:06:39.171Z,64.4
2023-02-24T00:07:55.470Z,63.6
2023-02-24T00:09:10.775Z,60.1
2023-02-24T00:10:27.072Z,60.7
2023-02-24T00:11:43.368Z,57.6
2023-02-24T00:12:59.654Z,61.9
2023-02-24T00:14:15.941Z,58.8
2023-02-24T00:15:32.246Z,59.6
2023-02-24T00:16:48.546Z,56.1
2023-02-24T00:18:04.837Z,55.1
2023-02-24T00:19:21.134Z,53.5
2023-02-24T00:20:37.417Z,52.7
2023-02-24T00:21:53.720Z,53
2023-02-24T00:23:10.008Z,54.3
2023-02-24T00:24:26.305Z,50.8
2023-02-24T00:25:41.619Z,55.6
2023-02-24T00:26:57.903Z,52.6
2023-02-24T00:28:14.206Z,59
2023-02-24T00:30:46.789Z,57
2023-02-24T00:32:03.084Z,60.2
2023-02-24T00:33:19.371Z,59.7
2023-02-24T00:34:35.664Z,55.8
2023-02-24T00:35:51.967Z,60.7
2023-02-24T00:37:08.271Z,63.4
2023-02-24T00:38:24.562Z,64.3
2023-02-24T00:39:40.843Z,55.9
2023-02-24T00:40:57.139Z,61.8
2023-02-24T00:42:12.450Z,58.8
2023-02-24T00:43:28.742Z,62.4
2023-02-24T00:44:45.033Z,58.7
2023-02-24T00:46:01.334Z,59
2023-02-24T00:47:17.635Z,59
2023-02-24T00:48:33.934Z,55.2
2023-02-24T00:49:50.227Z,56.4
2023-02-24T00:51:06.516Z,52.5
2023-02-24T00:52:22.799Z,53.2
2023-02-24T00:53:39.092Z,54.3
2023-02-24T00:54:55.385Z,48.9
2023-02-24T00:56:11.691Z,50.5
2023-02-24T00:57:27.987Z,46.2
2023-02-24T00:58:44.283Z,46.5
2023-02-24T00:59:59.579Z,49.2
2023-02-24T01:01:15.879Z,49.6
2023-02-24T01:02:32.179Z,44
2023-02-24T01:03:48.464Z,45.9
2023-02-24T01:06:21.070Z,45.8
2023-02-24T01:08:53.641Z,45.4
2023-02-24T01:10:09.950Z,45.4
2023-02-24T01:11:26.236Z,42.8
2023-02-24T01:12:42.526Z,45.5
2023-02-24T01:13:58.824Z,45.7
2023-02-24T01:15:15.108Z,47.2
2023-02-24T01:16:30.429Z,44.1
2023-02-24T01:17:46.728Z,49
2023-02-24T01:19:03.012Z,49.5
2023-02-24T01:20:19.302Z,46.4
2023-02-24T01:21:35.596Z,49.6
2023-02-24T01:22:51.888Z,51.3
2023-02-24T01:24:08.186Z,49.1
2023-02-24T01:25:24.478Z,52.6
2023-02-24T01:27:57.073Z,55.6
2023-02-24T01:29:12.384Z,48.8
2023-02-24T01:30:27.702Z,50.3
2023-02-24T01:31:44.004Z,49.6
2023-02-24T01:33:00.295Z,56.1
2023-02-24T01:34:16.592Z,56.8
2023-02-24T01:35:32.874Z,57
2023-02-24T01:36:49.175Z,57.2
2023-02-24T01:38:05.460Z,61.8
2023-02-24T01:39:21.766Z,62
2023-02-24T01:40:38.061Z,62.9
2023-02-24T01:41:54.357Z,71.2
2023-02-24T01:43:09.670Z,74.9
2023-02-24T01:44:24.971Z,79.1
2023-02-24T01:45:41.272Z,80.2
2023-02-24T01:46:57.566Z,88.6
2023-02-24T01:48:13.856Z,82.3
2023-02-24T01:49:30.145Z,73.6
2023-02-24T01:50:46.450Z,85
2023-02-24T01:52:02.746Z,71.2
2023-02-24T01:54:35.331Z,88
2023-02-24T01:55:51.620Z,66.7
2023-02-24T01:57:07.917Z,67.6
2023-02-24T01:58:24.206Z,70.5
2023-02-24T01:59:40.513Z,76.5
2023-02-24T02:02:12.115Z,74
2023-02-24T02:03:27.429Z,77.9
2023-02-24T02:04:43.849Z,75
2023-02-24T02:06:00.138Z,83.6
2023-02-24T02:07:16.428Z,80
2023-02-24T02:08:32.734Z,83.8
2023-02-24T02:09:49.026Z,85.4
2023-02-24T02:11:05.316Z,76.6
2023-02-24T02:12:21.606Z,76.7
2023-02-24T02:13:37.906Z,80.9
2023-02-24T02:14:54.198Z,77.9
2023-02-24T02:16:10.500Z,81.6
2023-02-24T02:17:25.802Z,79
2023-02-24T02:18:41.127Z,82.3
2023-02-24T02:19:57.406Z,76.9
2023-02-24T02:21:13.708Z,71.9
2023-02-24T02:22:29.994Z,73
2023-02-24T02:25:02.587Z,65.5
2023-02-24T02:26:18.881Z,67.7
2023-02-24T02:27:35.187Z,61.4
2023-02-24T02:28:51.479Z,68.6
2023-02-24T02:30:07.777Z,66.6
2023-02-24T02:32:40.367Z,72.5
2023-02-24T02:33:55.669Z,76.9
2023-02-24T02:35:10.982Z,70.7
2023-02-24T02:36:27.282Z,75.8
2023-02-24T02:37:43.573Z,62.6
2023-02-24T02:40:16.170Z,49.9
2023-02-24T02:41:32.460Z,31.3
2023-02-24T02:42:48.760Z,25.7
2023-02-24T02:44:05.041Z,28.1
2023-02-24T02:45:21.349Z,28
2023-02-24T02:46:37.625Z,21.5
2023-02-24T02:47:53.931Z,26.5
2023-02-24T02:49:10.230Z,22.7
2023-02-24T02:50:26.517Z,22.9
2023-02-24T02:51:41.823Z,25.2
2023-02-24T02:52:58.130Z,25.8
2023-02-24T02:54:14.426Z,28.6
2023-02-24T02:55:30.721Z,29.9
2023-02-24T02:56:47.013Z,28.7
2023-02-24T02:58:03.292Z,24.3
2023-02-24T02:59:19.593Z,22.6
2023-02-24T03:00:35.889Z,28
2023-02-24T03:01:51.200Z,26.4
2023-02-24T03:03:07.494Z,28.8
2023-02-24T03:04:22.816Z,25.3
2023-02-24T03:05:39.105Z,25
2023-02-24T03:06:55.408Z,28.4
2023-02-24T03:08:11.692Z,27.7
2023-02-24T03:10:44.295Z,31.9
2023-02-24T03:12:00.573Z,28.2
2023-02-24T03:13:16.872Z,32.3
2023-02-24T03:14:33.174Z,33.5
2023-02-24T03:15:49.471Z,35.4
2023-02-24T03:18:22.059Z,30.8
2023-02-24T03:19:37.363Z,32.3
2023-02-24T03:20:52.689Z,29.5
2023-02-24T03:22:08.975Z,26.3
2023-02-24T03:23:25.262Z,27.8
2023-02-24T03:25:57.858Z,28
2023-02-24T03:27:14.149Z,24.2
2023-02-24T03:28:30.440Z,30.4
2023-02-24T03:29:46.739Z,30.1
2023-02-24T03:31:03.046Z,23.7
2023-02-24T03:32:19.321Z,28.3
2023-02-24T03:33:35.638Z,30.1
2023-02-24T03:34:51.931Z,29.7
2023-02-24T03:36:08.217Z,28.7
2023-02-24T03:37:23.521Z,26.3
2023-02-24T03:38:39.826Z,27.3
2023-02-24T03:39:56.114Z,28.8
2023-02-24T03:41:12.407Z,31
2023-02-24T03:42:28.714Z,25.5
2023-02-24T03:43:45.005Z,26.1
2023-02-24T03:45:01.290Z,28.2
2023-02-24T03:46:17.584Z,27.7
2023-02-24T03:48:49.195Z,27.3
2023-02-24T03:50:04.516Z,31.2
2023-02-24T03:51:20.815Z,28.4
2023-02-24T03:52:37.101Z,26.6
2023-02-24T03:53:52.416Z,27.6
2023-02-24T03:55:07.726Z,34.3
2023-02-24T03:56:24.030Z,33.9
2023-02-24T03:57:40.328Z,32
2023-02-24T03:58:56.610Z,40.4
2023-02-24T04:00:12.913Z,36
2023-02-24T04:01:29.211Z,32.6
2023-02-24T04:02:45.499Z,41.3
2023-02-24T04:04:01.803Z,38.4
2023-02-24T04:06:34.392Z,37.9
2023-02-24T04:07:50.685Z,39.9
2023-02-24T04:09:06.970Z,34.9
2023-02-24T04:11:39.562Z,36.2
2023-02-24T04:12:54.872Z,36
2023-02-24T04:14:10.181Z,33.8
2023-02-24T04:15:26.484Z,39
2023-02-24T04:16:42.786Z,29
2023-02-24T04:17:59.079Z,32.4
2023-02-24T04:19:15.356Z,33
2023-02-24T04:20:31.651Z,34.7
2023-02-24T04:21:47.960Z,31.4
2023-02-24T04:23:04.245Z,34.7
2023-02-24T04:24:20.535Z,32.8
2023-02-24T04:25:36.847Z,32.6
2023-02-24T04:26:52.157Z,32.5
2023-02-24T04:28:07.458Z,34.3
2023-02-24T04:29:23.761Z,32.8
2023-02-24T04:30:40.051Z,28.1
2023-02-24T04:31:56.349Z,26.2
2023-02-24T04:34:28.941Z,29.9
2023-02-24T04:35:45.228Z,23.1
2023-02-24T04:37:01.537Z,24.5
2023-02-24T04:38:17.825Z,26.5
2023-02-24T04:39:34.109Z,24.2
2023-02-24T04:42:06.699Z,23.7
2023-02-24T04:43:22.035Z,23.4
2023-02-24T04:44:37.327Z,24.1
2023-02-24T04:45:53.622Z,20.3
2023-02-24T04:47:09.914Z,21.3
2023-02-24T04:48:26.217Z,22.5
2023-02-24T04:49:42.507Z,20.7
2023-02-24T04:50:58.800Z,23.6
2023-02-24T04:52:15.103Z,21.9
2023-02-24T04:53:31.393Z,19.5
2023-02-24T04:54:47.699Z,21.5
2023-02-24T04:56:03.977Z,20.5
2023-02-24T04:57:19.296Z,24.8
2023-02-24T04:58:34.609Z,22.2
2023-02-24T04:59:50.907Z,24.5
2023-02-24T05:01:07.195Z,22.9
2023-02-24T05:02:23.499Z,21.9
2023-02-24T05:03:39.789Z,20.9
2023-02-24T05:04:56.077Z,19.2
2023-02-24T05:06:12.384Z,23.3
2023-02-24T05:07:28.668Z,19
2023-02-24T05:08:44.972Z,18.5
2023-02-24T05:10:01.257Z,18.9
2023-02-24T05:11:17.563Z,17.7
2023-02-24T05:12:33.861Z,19.1
2023-02-24T05:13:50.145Z,19.5
2023-02-24T05:15:05.456Z,21.3
2023-02-24T05:16:21.748Z,18.3
2023-02-24T05:17:38.044Z,23.6
2023-02-24T05:18:54.345Z,20.2
2023-02-24T05:20:10.640Z,17.4
2023-02-24T05:21:26.929Z,19.2
2023-02-24T05:22:43.224Z,16.5
2023-02-24T05:23:59.529Z,20.3
2023-02-24T05:25:15.825Z,18.3
2023-02-24T05:26:32.110Z,22.2
2023-02-24T05:27:48.412Z,19.3
2023-02-24T05:29:04.710Z,23.4
2023-02-24T05:30:21.001Z,20
2023-02-24T05:31:36.313Z,19.8
2023-02-24T05:32:52.608Z,20
2023-02-24T05:34:08.892Z,19.2
2023-02-24T05:35:25.185Z,19.8
2023-02-24T05:36:41.483Z,15.5
2023-02-24T05:37:57.777Z,18.2
2023-02-24T05:39:14.011Z,19
2023-02-24T05:40:30.309Z,16.8
2023-02-24T05:41:46.574Z,19.2
2023-02-24T05:43:02.812Z,23.3
2023-02-24T05:44:19.099Z,19.3
2023-02-24T05:45:35.363Z,18.6
2023-02-24T05:46:51.587Z,18
2023-02-24T05:48:06.864Z,19.6
2023-02-24T05:49:23.087Z,20.3
2023-02-24T05:50:39.343Z,17.5
2023-02-24T05:51:55.569Z,18.5
2023-02-24T05:53:11.821Z,17.7
2023-02-24T05:54:28.054Z,19.4
2023-02-24T05:55:44.291Z,16.2
2023-02-24T05:58:16.774Z,18.9
2023-02-24T05:59:33.017Z,17.3
2023-02-24T06:00:49.270Z,16.3
2023-02-24T06:02:05.506Z,21.4
2023-02-24T06:03:21.735Z,19.5
2023-02-24T06:04:37.005Z,17.7
2023-02-24T06:05:53.233Z,20.9
2023-02-24T06:07:09.482Z,19.9
2023-02-24T06:08:25.710Z,20
2023-02-24T06:09:41.955Z,18.8
2023-02-24T06:10:58.208Z,19.1
2023-02-24T06:12:14.440Z,21.9
2023-02-24T06:14:46.927Z,19
2023-02-24T06:16:03.163Z,19.7
2023-02-24T06:17:19.406Z,21.6
2023-02-24T06:18:35.644Z,20.3
2023-02-24T06:19:51.897Z,16.6
2023-02-24T06:21:07.134Z,18.4
2023-02-24T06:23:39.616Z,19.3
2023-02-24T06:24:54.878Z,21.8
2023-02-24T06:26:10.137Z,18.1
2023-02-24T06:28:42.635Z,20.4
2023-02-24T06:29:58.865Z,19.8
2023-02-24T06:31:15.107Z,17.6
2023-02-24T06:32:31.346Z,19.1
2023-02-24T06:33:47.583Z,17
2023-02-24T06:35:03.820Z,17.7
2023-02-24T06:36:20.080Z,18.9
2023-02-24T06:38:52.559Z,20.5
2023-02-24T06:40:08.797Z,18
2023-02-24T06:41:24.064Z,12.9
2023-02-24T06:42:39.318Z,17.8
2023-02-24T06:43:55.554Z,20.1
2023-02-24T06:45:11.801Z,17.4
2023-02-24T06:46:28.026Z,16.5
2023-02-24T06:47:44.279Z,15.5
2023-02-24T06:49:00.519Z,17.4
2023-02-24T06:50:16.763Z,17.9
2023-02-24T06:51:33.006Z,17
2023-02-24T06:52:49.245Z,17.2
2023-02-24T06:54:05.486Z,19.6
2023-02-24T06:55:20.734Z,15.4
2023-02-24T06:56:35.996Z,16.5
2023-02-24T06:57:52.239Z,15.9
2023-02-24T06:59:08.473Z,14.7
2023-02-24T07:00:24.724Z,17
2023-02-24T07:01:40.966Z,16.8
2023-02-24T07:02:57.207Z,17.7
2023-02-24T07:04:13.436Z,19.3
2023-02-24T07:06:45.930Z,21.1
2023-02-24T07:08:02.154Z,17.3
2023-02-24T07:09:18.397Z,22.4
2023-02-24T07:10:34.650Z,22.3
2023-02-24T07:11:50.890Z,20.6
2023-02-24T07:13:06.154Z,22.1
2023-02-24T07:14:22.387Z,27.9
2023-02-24T07:15:38.614Z,24.1
2023-02-24T07:16:54.866Z,21.9
2023-02-24T07:18:11.108Z,19
2023-02-24T07:19:27.342Z,20.1
2023-02-24T07:21:59.828Z,17.1
2023-02-24T07:23:16.069Z,18.6
2023-02-24T07:24:32.316Z,18.4
2023-02-24T07:25:48.554Z,15.5
2023-02-24T07:27:04.781Z,16.3
2023-02-24T07:29:37.279Z,17.9
2023-02-24T07:30:52.529Z,19.4
2023-02-24T07:32:07.780Z,16.6
2023-02-24T07:33:24.030Z,15.4
2023-02-24T07:34:40.272Z,18.1
2023-02-24T07:35:56.518Z,15.1
2023-02-24T07:37:12.745Z,15.6
2023-02-24T07:38:28.994Z,15.5
2023-02-24T07:39:45.226Z,17.2
2023-02-24T07:41:01.484Z,13.7
2023-02-24T07:42:17.714Z,14.5
2023-02-24T07:43:33.960Z,17.2
2023-02-24T07:44:49.211Z,14.3
2023-02-24T07:46:04.475Z,18.3
2023-02-24T07:47:20.709Z,15.9
2023-02-24T07:48:36.964Z,14.4
2023-02-24T07:49:53.207Z,14.9
2023-02-24T07:51:09.446Z,13
2023-02-24T07:52:25.687Z,15
2023-02-24T07:53:41.913Z,19.7
2023-02-24T07:54:58.160Z,13.5
2023-02-24T07:56:14.407Z,15.9
2023-02-24T07:57:30.642Z,18.7
2023-02-24T08:00:02.155Z,18.1
2023-02-24T08:01:17.399Z,18.1
2023-02-24T08:02:33.638Z,16.8
2023-02-24T08:03:49.874Z,17.8
2023-02-24T08:05:05.142Z,18.3
2023-02-24T08:06:21.385Z,16.6
2023-02-24T08:07:37.627Z,18.1
2023-02-24T08:08:53.865Z,15.6
2023-02-24T08:10:10.100Z,17.9
2023-02-24T08:11:26.354Z,17.2
2023-02-24T08:12:41.608Z,16.6
2023-02-24T08:13:56.873Z,16.4
2023-02-24T08:15:13.101Z,15.8
2023-02-24T08:16:29.349Z,17.1
2023-02-24T08:17:45.597Z,17.3
2023-02-24T08:19:01.833Z,15.5
2023-02-24T08:20:18.067Z,19.7
2023-02-24T08:21:34.315Z,16.8
2023-02-24T08:22:50.543Z,15.3
2023-02-24T08:24:06.798Z,15.8
2023-02-24T08:25:23.030Z,16.1
2023-02-24T08:26:39.274Z,17.8
2023-02-24T08:27:55.508Z,22.9
2023-02-24T08:29:11.765Z,18.1
2023-02-24T08:30:27.005Z,18.5
2023-02-24T08:31:43.245Z,19.1
2023-02-24T08:32:59.491Z,18.3
2023-02-24T08:34:15.730Z,21.5
2023-02-24T08:35:31.986Z,17.8
2023-02-24T08:36:48.222Z,19.1
2023-02-24T08:38:04.449Z,18.1
2023-02-24T08:39:20.703Z,20.8
2023-02-24T08:40:36.938Z,20.5
2023-02-24T08:41:53.179Z,19.5
2023-02-24T08:43:09.426Z,21
2023-02-24T08:44:25.658Z,18.5
2023-02-24T08:45:41.893Z,18.4
2023-02-24T08:46:57.162Z,18.7
2023-02-24T08:48:13.398Z,19.1
2023-02-24T08:49:29.646Z,19.4
2023-02-24T08:50:45.872Z,14.5
2023-02-24T08:52:02.121Z,20.2
2023-02-24T08:53:18.361Z,19
2023-02-24T08:54:34.610Z,20.6
2023-02-24T08:55:50.845Z,16.5
2023-02-24T08:57:07.086Z,20.7
2023-02-24T08:58:23.327Z,16.7
2023-02-24T08:59:39.566Z,17.2
2023-02-24T09:00:55.813Z,19.7
2023-02-24T09:02:12.052Z,18.3
2023-02-24T09:03:27.305Z,20.1
2023-02-24T09:04:43.540Z,19.5
2023-02-24T09:05:59.788Z,18.9
2023-02-24T09:07:16.014Z,19.3
2023-02-24T09:08:32.272Z,18.1
2023-02-24T09:09:48.504Z,17.2
2023-02-24T09:11:04.741Z,14.4
2023-02-24T09:12:20.989Z,18.3
2023-02-24T09:13:37.219Z,20.4
2023-02-24T09:16:09.705Z,18.6
2023-02-24T09:17:25.958Z,20.3
2023-02-24T09:18:42.180Z,19
2023-02-24T09:19:57.441Z,20.5
2023-02-24T09:21:13.686Z,18.3
2023-02-24T09:22:29.929Z,20.9
2023-02-24T09:23:46.161Z,20.4
2023-02-24T09:25:02.408Z,18.3
2023-02-24T09:26:18.654Z,20.4
2023-02-24T09:27:34.879Z,18.4
2023-02-24T09:28:51.132Z,18.8
2023-02-24T09:30:07.373Z,16.5
2023-02-24T09:31:23.608Z,18.6
2023-02-24T09:32:39.852Z,16.3
2023-02-24T09:33:56.085Z,19.6
2023-02-24T09:35:12.334Z,15.4
2023-02-24T09:36:27.588Z,17.8
2023-02-24T09:37:43.822Z,15
2023-02-24T09:39:00.074Z,19.2
2023-02-24T09:40:16.311Z,15.6
2023-02-24T09:41:32.554Z,18.4
2023-02-24T09:42:48.781Z,19
2023-02-24T09:44:05.041Z,17.1
2023-02-24T09:45:21.270Z,17.4
2023-02-24T09:46:37.514Z,18.7
2023-02-24T09:49:09.988Z,16.4
2023-02-24T09:50:26.242Z,15.9
2023-02-24T09:51:42.467Z,17.6
2023-02-24T09:54:13.976Z,20.1
2023-02-24T09:55:30.207Z,18.3
2023-02-24T09:56:46.462Z,18.1
2023-02-24T09:58:02.696Z,18.3
2023-02-24T09:59:18.942Z,19.7
2023-02-24T10:00:35.171Z,19.2
2023-02-24T10:01:51.423Z,17.8
2023-02-24T10:03:07.655Z,18.4
2023-02-24T10:04:23.908Z,18.9
2023-02-24T10:05:40.138Z,15.5
2023-02-24T10:06:56.370Z,17.6
2023-02-24T10:09:28.862Z,16.6
2023-02-24T10:10:44.116Z,16.6
2023-02-24T10:11:59.375Z,15.2
2023-02-24T10:13:15.617Z,14.9
2023-02-24T10:14:31.861Z,15.6
2023-02-24T10:15:48.109Z,15.2
2023-02-24T10:17:04.333Z,13.8
2023-02-24T10:18:20.574Z,14.5
2023-02-24T10:19:36.825Z,14.5
2023-02-24T10:20:53.056Z,15.7
2023-02-24T10:22:09.300Z,13.8
2023-02-24T10:23:25.547Z,16.5
2023-02-24T10:24:40.805Z,13.5
2023-02-24T10:25:56.058Z,12
2023-02-24T10:27:12.301Z,15.7
2023-02-24T10:28:28.544Z,13.5
2023-02-24T10:29:44.791Z,11.8
2023-02-24T10:32:17.254Z,14.7
2023-02-24T10:33:33.506Z,13.9
2023-02-24T10:34:49.736Z,15.7
2023-02-24T10:36:05.994Z,17.8
2023-02-24T10:37:22.223Z,13.9
2023-02-24T10:38:38.465Z,13.6
2023-02-24T10:39:54.704Z,15.1
2023-02-24T10:41:10.943Z,13.3
2023-02-24T10:42:26.205Z,16.6
2023-02-24T10:43:42.452Z,14.6
2023-02-24T10:44:58.678Z,15.8
2023-02-24T10:46:14.922Z,14.3
2023-02-24T10:47:31.166Z,15
2023-02-24T10:48:47.402Z,15.1
2023-02-24T10:50:03.647Z,17.1
2023-02-24T10:51:19.890Z,14.2
2023-02-24T10:52:36.124Z,15.9
2023-02-24T10:53:52.366Z,16.6
2023-02-24T10:55:08.615Z,16.5
2023-02-24T10:56:24.860Z,14
2023-02-24T10:57:41.096Z,15.6
2023-02-24T10:58:56.334Z,15.2
2023-02-24T11:00:12.576Z,14.5
2023-02-24T11:01:28.827Z,13.9
2023-02-24T11:02:45.075Z,16.1
2023-02-24T11:04:01.314Z,17
2023-02-24T11:05:17.537Z,18.2
2023-02-24T11:06:33.784Z,17.4
2023-02-24T11:07:50.026Z,15.7
2023-02-24T11:09:06.270Z,15.4
2023-02-24T11:10:22.513Z,18.6
2023-02-24T11:11:38.751Z,17.7
2023-02-24T11:12:54.981Z,15.5
2023-02-24T11:14:11.235Z,16.4
2023-02-24T11:15:26.480Z,17.4
2023-02-24T11:16:42.727Z,18.9
2023-02-24T11:17:58.955Z,17.4
2023-02-24T11:19:15.212Z,16.3
2023-02-24T11:20:31.438Z,17.4
2023-02-24T11:21:47.677Z,16.1
2023-02-24T11:23:03.923Z,15.5
2023-02-24T11:24:20.162Z,16.4
2023-02-24T11:25:36.411Z,16.1
2023-02-24T11:26:52.638Z,16
2023-02-24T11:28:08.878Z,13.7
2023-02-24T11:29:25.133Z,15.6
2023-02-24T11:30:41.376Z,16
2023-02-24T11:33:12.869Z,16.6
2023-02-24T11:34:29.103Z,15.8
2023-02-24T11:35:45.349Z,14.6
2023-02-24T11:37:01.583Z,15.4
2023-02-24T11:38:17.817Z,15.8
2023-02-24T11:39:34.059Z,18.2
2023-02-24T11:40:50.314Z,14.8
2023-02-24T11:42:06.551Z,15.1
2023-02-24T11:43:22.786Z,13
2023-02-24T11:44:39.031Z,15
2023-02-24T11:45:55.262Z,13
2023-02-24T11:47:11.515Z,11.4
2023-02-24T11:48:26.760Z,11.5
2023-02-24T11:49:43.000Z,13.1
2023-02-24T11:50:59.253Z,10.3
2023-02-24T11:52:15.478Z,9.4
2023-02-24T11:53:31.729Z,9.4
2023-02-24T11:54:47.971Z,9.6
2023-02-24T11:56:04.206Z,11
2023-02-24T11:57:20.441Z,8.9
2023-02-24T11:58:36.675Z,9.5
2023-02-24T11:59:52.925Z,11.5
2023-02-24T12:01:09.159Z,9.6
2023-02-24T12:02:25.412Z,9.3
2023-02-24T12:03:41.645Z,10
2023-02-24T12:04:58.002Z,10.4
2023-02-24T12:06:14.240Z,9.3
2023-02-24T12:07:30.491Z,10
2023-02-24T12:08:46.736Z,11.2
2023-02-24T12:10:02.959Z,9.2
2023-02-24T12:11:19.211Z,10.4
2023-02-24T12:12:35.453Z,11.1
2023-02-24T12:13:51.681Z,10.5
2023-02-24T12:15:07.934Z,9.3
2023-02-24T12:16:24.171Z,10.6
2023-02-24T12:17:40.000Z,10.8
2023-02-24T12:18:56.646Z,11
2023-02-24T12:20:12.900Z,11.6
2023-02-24T12:21:28.142Z,10.2
2023-02-24T12:22:44.398Z,11.4
2023-02-24T12:24:00.637Z,10.5
2023-02-24T12:25:16.882Z,10.8
2023-02-24T12:26:33.122Z,10.5
2023-02-24T12:27:49.351Z,10.8
2023-02-24T12:29:05.593Z,12
2023-02-24T12:30:21.828Z,11.5
2023-02-24T12:31:38.067Z,11.6
2023-02-24T12:34:10.563Z,12.4
2023-02-24T12:35:26.789Z,11.5
2023-02-24T12:36:43.040Z,11.5
2023-02-24T12:37:58.291Z,11.8
2023-02-24T12:39:14.541Z,11.9
2023-02-24T12:40:30.780Z,13.2
2023-02-24T12:41:47.022Z,11
2023-02-24T12:43:03.246Z,13.4
2023-02-24T12:44:19.493Z,10.1
2023-02-24T12:45:35.739Z,14
2023-02-24T12:46:51.986Z,11.7
2023-02-24T12:49:24.448Z,10.4
2023-02-24T12:50:40.689Z,11.7
2023-02-24T12:51:56.948Z,10.8
2023-02-24T12:53:13.189Z,11
2023-02-24T12:54:28.435Z,13
2023-02-24T12:55:44.680Z,12.4
2023-02-24T12:57:00.915Z,12
2023-02-24T12:58:17.166Z,13.2
2023-02-24T12:59:33.395Z,12.4
2023-02-24T13:00:49.642Z,12
2023-02-24T13:02:05.872Z,11.8
2023-02-24T13:03:22.119Z,13.4
2023-02-24T13:04:38.363Z,12
2023-02-24T13:05:54.616Z,12.7
2023-02-24T13:07:10.843Z,14.5
2023-02-24T13:08:27.094Z,11.5
2023-02-24T13:09:43.316Z,11.8
2023-02-24T13:10:58.577Z,12.7
2023-02-24T13:12:14.824Z,14.4
2023-02-24T13:13:31.072Z,13.1
2023-02-24T13:14:47.302Z,12.2
2023-02-24T13:16:03.551Z,13.2
2023-02-24T13:17:19.787Z,12
2023-02-24T13:19:52.256Z,11.6
2023-02-24T13:21:08.515Z,11.2
2023-02-24T13:22:24.739Z,12.9
2023-02-24T13:23:40.985Z,10.3
2023-02-24T13:24:57.225Z,11.9
2023-02-24T13:26:13.472Z,12.5
2023-02-24T13:27:28.731Z,15.6
2023-02-24T13:28:44.975Z,12.8
2023-02-24T13:30:01.196Z,13.2
2023-02-24T13:31:17.436Z,12.8
2023-02-24T13:32:33.680Z,12.3
2023-02-24T13:33:49.926Z,12.3
2023-02-24T13:35:06.170Z,12.7
2023-02-24T13:36:22.409Z,12.4
2023-02-24T13:37:38.648Z,12.4
2023-02-24T13:38:54.880Z,11.8
2023-02-24T13:40:11.128Z,12.4
2023-02-24T13:41:27.371Z,13.6
2023-02-24T13:42:43.614Z,12.4
2023-02-24T13:43:58.858Z,13.7
2023-02-24T13:45:15.109Z,11.8
2023-02-24T13:46:31.342Z,11.8
2023-02-24T13:47:47.581Z,13
2023-02-24T13:49:03.821Z,13
2023-02-24T13:50:20.065Z,11.1
2023-02-24T13:51:36.309Z,11.4
2023-02-24T13:52:52.560Z,13.2
2023-02-24T13:54:08.798Z,12.6
2023-02-24T13:55:25.028Z,13.4
2023-02-24T13:56:41.282Z,12.9
2023-02-24T13:57:57.507Z,16
2023-02-24T13:59:13.746Z,14.2
2023-02-24T14:00:29.009Z,13.9
2023-02-24T14:01:45.261Z,14.3
2023-02-24T14:03:01.482Z,14.6
2023-02-24T14:04:17.738Z,15.3
2023-02-24T14:05:33.983Z,16.1
2023-02-24T14:06:50.214Z,16.3
2023-02-24T14:08:06.454Z,15.6
2023-02-24T14:09:22.691Z,15
2023-02-24T14:10:38.929Z,16.8
2023-02-24T14:13:11.424Z,18.6
2023-02-24T14:14:27.663Z,17
2023-02-24T14:15:43.906Z,15.3
2023-02-24T14:16:59.158Z,19.7
2023-02-24T14:18:15.397Z,17.2
2023-02-24T14:19:31.635Z,17.5
2023-02-24T14:20:47.874Z,19.3
2023-02-24T14:22:04.110Z,19.3
2023-02-24T14:23:20.367Z,18.6
2023-02-24T14:24:36.601Z,17.4
2023-02-24T14:25:52.835Z,17.5
2023-02-24T14:27:09.075Z,17.4
2023-02-24T14:28:25.314Z,15.9
2023-02-24T14:29:41.554Z,16.4
2023-02-24T14:30:57.800Z,17.3
2023-02-24T14:32:14.036Z,16.1
2023-02-24T14:33:29.301Z,15.5
2023-02-24T14:34:45.536Z,15.3
2023-02-24T14:36:01.783Z,17.2
2023-02-24T14:37:18.025Z,16.9
2023-02-24T14:38:34.268Z,17.2
2023-02-24T14:39:50.508Z,17.3
2023-02-24T14:41:06.752Z,17.3
2023-02-24T14:42:22.980Z,17.5
2023-02-24T14:43:39.229Z,15.9
2023-02-24T14:44:55.458Z,18.8
2023-02-24T14:46:11.714Z,17
2023-02-24T14:47:27.936Z,18.4
2023-02-24T14:48:44.185Z,17.5
2023-02-24T14:50:00.431Z,19.4
2023-02-24T14:51:15.680Z,16.7
2023-02-24T14:52:31.931Z,17.6
2023-02-24T14:53:48.165Z,19.6
2023-02-24T14:55:04.412Z,16.1
2023-02-24T14:56:20.649Z,17.7
2023-02-24T14:57:36.884Z,17
2023-02-24T14:58:53.129Z,18.7
2023-02-24T15:00:09.367Z,18.6
2023-02-24T15:01:25.604Z,18.5
2023-02-24T15:02:41.853Z,18.8
2023-02-24T15:03:58.093Z,20
2023-02-24T15:05:14.339Z,17.7
2023-02-24T15:06:30.580Z,17.6
2023-02-24T15:07:45.822Z,18.1
2023-02-24T15:09:02.073Z,20.3
2023-02-24T15:10:18.316Z,17
2023-02-24T15:11:34.554Z,17.3
2023-02-24T15:12:50.792Z,18.1
2023-02-24T15:14:07.028Z,17.8
2023-02-24T15:15:23.279Z,20.1
2023-02-24T15:16:39.508Z,19.8
2023-02-24T15:17:55.751Z,16.8
2023-02-24T15:19:11.990Z,19.3
2023-02-24T15:21:44.470Z,17.3
2023-02-24T15:23:00.721Z,17.4
2023-02-24T15:24:15.985Z,19.2
2023-02-24T15:25:32.224Z,20.3
2023-02-24T15:26:48.460Z,19.7
2023-02-24T15:28:04.705Z,20
2023-02-24T15:29:20.947Z,20
2023-02-24T15:30:37.174Z,20
2023-02-24T15:31:53.412Z,20
2023-02-24T15:33:09.664Z,20.9
2023-02-24T15:34:25.900Z,21.2
2023-02-24T15:36:58.389Z,22.1
2023-02-24T15:38:14.634Z,17.3
2023-02-24T15:40:47.096Z,20.7
2023-02-24T15:42:02.373Z,17.1
2023-02-24T15:43:17.629Z,19.2
2023-02-24T15:44:33.855Z,19.5
2023-02-24T15:45:50.105Z,18.4
2023-02-24T15:47:06.346Z,21.1
2023-02-24T15:48:22.000Z,18.8
2023-02-24T15:49:38.830Z,20.2
2023-02-24T15:50:55.065Z,19
2023-02-24T15:53:27.552Z,19.1
2023-02-24T15:54:43.790Z,20.4
2023-02-24T15:56:00.024Z,19.5
2023-02-24T15:57:16.261Z,18.2
2023-02-24T15:58:32.514Z,17.5
2023-02-24T15:59:47.769Z,18
2023-02-24T16:01:04.002Z,17.9
2023-02-24T16:02:20.256Z,23.1
2023-02-24T16:03:36.502Z,20.2
2023-02-24T16:04:52.728Z,18.8
2023-02-24T16:06:08.978Z,16.8
2023-02-24T16:07:25.206Z,15.9
2023-02-24T16:08:41.456Z,16.2
2023-02-24T16:09:56.723Z,15.4
2023-02-24T16:11:11.973Z,13.2
2023-02-24T16:12:28.218Z,14.9
2023-02-24T16:13:44.454Z,13.7
2023-02-24T16:15:00.704Z,13.3
2023-02-24T16:16:16.931Z,14.5
2023-02-24T16:17:33.170Z,16
2023-02-24T16:18:49.425Z,15.8
2023-02-24T16:20:05.650Z,15.4
2023-02-24T16:21:21.905Z,14.4
2023-02-24T16:22:38.145Z,11.5
2023-02-24T16:23:54.379Z,13.1
2023-02-24T16:25:10.624Z,11
2023-02-24T16:26:26.852Z,10.8
2023-02-24T16:27:42.115Z,10.3
2023-02-24T16:28:58.357Z,9.8
2023-02-24T16:30:14.595Z,11
2023-02-24T16:31:30.850Z,10
2023-02-24T16:32:47.089Z,9.4
2023-02-24T16:34:03.330Z,9.5
2023-02-24T16:35:19.570Z,10.7
2023-02-24T16:36:34.822Z,9.2
2023-02-24T16:37:51.073Z,9.7
2023-02-24T16:39:07.298Z,10
2023-02-24T16:40:23.555Z,10.5
2023-02-24T16:41:39.797Z,10.7
2023-02-24T16:42:56.029Z,10.4
2023-02-24T16:44:12.276Z,11.5
2023-02-24T16:45:28.516Z,10.1
2023-02-24T16:46:44.755Z,12.1
2023-02-24T16:48:00.982Z,11.6
2023-02-24T16:49:17.232Z,11.9
2023-02-24T16:50:33.470Z,11.4
2023-02-24T16:51:49.706Z,10.6
2023-02-24T16:53:04.977Z,10.2
2023-02-24T16:54:21.200Z,9.3
2023-02-24T16:55:37.460Z,9.2
2023-02-24T16:56:53.702Z,10.3
2023-02-24T16:58:09.937Z,9.2
2023-02-24T16:59:26.167Z,9.4
2023-02-24T17:00:42.418Z,9.5
2023-02-24T17:01:58.666Z,9.8
2023-02-24T17:03:14.896Z,10.1
2023-02-24T17:05:47.397Z,10.9
2023-02-24T17:07:03.636Z,10.9
2023-02-24T17:08:19.878Z,11.8
2023-02-24T17:09:35.188Z,11.8
2023-02-24T17:10:51.471Z,11.8
2023-02-24T17:12:07.762Z,11.2
2023-02-24T17:13:24.060Z,11.1
2023-02-24T17:14:40.367Z,11.3
2023-02-24T17:15:56.662Z,13
2023-02-24T17:17:12.950Z,12.7
2023-02-24T17:18:29.250Z,11.8
2023-02-24T17:19:45.528Z,12.5
2023-02-24T17:21:01.838Z,12.8
2023-02-24T17:22:18.134Z,13
2023-02-24T17:23:34.423Z,12.8
2023-02-24T17:24:50.710Z,11.9
2023-02-24T17:26:06.023Z,12.7
2023-02-24T17:27:22.320Z,13.6
2023-02-24T17:28:38.614Z,12.5
2023-02-24T17:29:54.919Z,11.3
2023-02-24T17:31:11.198Z,14.9
2023-02-24T17:32:27.501Z,11.8
2023-02-24T17:33:43.790Z,12.4
2023-02-24T17:35:00.086Z,12.2
2023-02-24T17:36:16.386Z,12.1
2023-02-24T17:37:32.671Z,13.4
2023-02-24T17:38:48.968Z,12.7
2023-02-24T17:40:05.259Z,12.8
2023-02-24T17:41:21.566Z,12.8
2023-02-24T17:42:36.869Z,12.7
2023-02-24T17:43:53.164Z,13.6
2023-02-24T17:45:09.470Z,13.9
2023-02-24T17:46:25.767Z,13.9
2023-02-24T17:47:42.057Z,13.2
2023-02-24T17:48:58.347Z,12.8
2023-02-24T17:50:14.650Z,13.6
2023-02-24T17:51:30.931Z,15
2023-02-24T17:52:47.241Z,14.2
2023-02-24T17:54:03.522Z,14.7